Time;durP1;ratioP1;P1;durP2;ratioP2;P2;SDS_P1;SDS_P2;PMS_P1;PMS_P2;Temp;Humidity;BMP_temperature;BMP_pressure;BME280_temperature;BME280_humidity;BME280_pressure;Samples;Min_cycle;Max_cycle;Signal;HPM_P1;HPM_P2
2021/03/31 00:00:49;;;;;;;24.70;13.45;;;13.50;89.50;;;;;;4939116;28;20106;-73
2021/03/31 00:03:19;;;;;;;25.80;13.23;;;13.50;89.40;;;;;;4938630;28;20317;-73
2021/03/31 00:05:45;;;;;;;25.23;12.10;;;13.50;89.40;;;;;;4938859;28;20399;-73
2021/03/31 00:08:11;;;;;;;20.77;12.00;;;13.60;89.00;;;;;;4940711;28;20058;-73
2021/03/31 00:10:46;;;;;;;21.50;11.88;;;13.40;89.20;;;;;;4938978;28;20026;-73
2021/03/31 00:13:13;;;;;;;27.35;14.73;;;13.40;89.50;;;;;;4938446;28;20176;-73
2021/03/31 00:15:39;;;;;;;25.92;13.02;;;13.30;90.00;;;;;;4938707;28;20030;-73
2021/03/31 00:18:07;;;;;;;24.05;13.52;;;13.10;90.20;;;;;;4941456;28;20058;-73
2021/03/31 00:20:33;;;;;;;25.40;14.18;;;13.00;90.50;;;;;;4939202;28;20508;-73
2021/03/31 00:23:00;;;;;;;24.98;13.90;;;13.00;90.70;;;;;;4938939;28;20034;-73
2021/03/31 00:25:26;;;;;;;26.65;12.32;;;13.10;90.70;;;;;;4941665;28;20038;-73
2021/03/31 00:27:52;;;;;;;23.58;13.73;;;13.20;90.50;;;;;;4941785;28;20027;-73
2021/03/31 00:30:18;;;;;;;28.95;14.68;;;13.40;90.30;;;;;;4939338;28;20027;-73
2021/03/31 00:32:44;;;;;;;22.65;13.43;;;13.20;90.60;;;;;;4937843;28;20031;-73
2021/03/31 00:35:10;;;;;;;27.85;13.40;;;12.90;91.00;;;;;;4937942;28;20128;-73
2021/03/31 00:37:37;;;;;;;26.80;14.38;;;12.90;91.20;;;;;;4939096;28;20071;-73
2021/03/31 00:40:07;;;;;;;22.63;12.93;;;12.90;91.10;;;;;;4942019;28;20494;-73
2021/03/31 00:42:33;;;;;;;27.48;13.23;;;13.00;90.90;;;;;;4946548;28;20413;-73
2021/03/31 00:44:59;;;;;;;20.52;12.27;;;13.00;91.00;;;;;;4940042;28;20085;-73
2021/03/31 00:47:25;;;;;;;28.30;14.18;;;12.90;91.00;;;;;;4940728;28;20201;-73
2021/03/31 00:49:50;;;;;;;32.28;13.75;;;13.00;91.10;;;;;;4940617;28;20505;-73
2021/03/31 00:52:16;;;;;;;22.38;13.02;;;12.90;91.20;;;;;;4937443;28;20031;-73
2021/03/31 00:54:42;;;;;;;26.73;14.77;;;13.00;91.00;;;;;;4939036;28;20027;-73
2021/03/31 00:57:07;;;;;;;20.98;11.07;;;12.80;91.40;;;;;;4937961;28;20035;-73
2021/03/31 00:59:33;;;;;;;22.45;12.60;;;12.80;91.30;;;;;;4941080;28;20114;-73
2021/03/31 01:01:59;;;;;;;23.15;11.95;;;12.70;91.40;;;;;;4941517;28;20379;-73
2021/03/31 01:04:24;;;;;;;22.48;12.18;;;12.60;91.50;;;;;;4937441;28;20043;-73
2021/03/31 01:06:50;;;;;;;28.23;13.55;;;12.70;91.50;;;;;;4937786;28;20046;-73
2021/03/31 01:09:16;;;;;;;25.38;14.02;;;12.80;91.30;;;;;;4945080;28;20059;-73
2021/03/31 01:12:19;;;;;;;25.02;13.98;;;12.60;91.60;;;;;;4940873;28;20034;-73
2021/03/31 01:15:07;;;;;;;21.42;12.00;;;12.70;91.60;;;;;;4942099;28;20043;-73
2021/03/31 01:17:40;;;;;;;25.48;13.63;;;12.70;91.40;;;;;;4938494;28;20145;-73
2021/03/31 01:20:21;;;;;;;22.65;11.38;;;12.70;91.60;;;;;;4937447;28;20067;-73
2021/03/31 01:23:11;;;;;;;25.73;15.05;;;13.10;90.70;;;;;;4937222;28;20129;-73
2021/03/31 01:25:58;;;;;;;27.63;13.45;;;13.00;90.50;;;;;;4940208;28;20453;-73
2021/03/31 01:28:30;;;;;;;27.50;13.35;;;13.00;90.70;;;;;;4941326;28;20039;-73
2021/03/31 01:31:28;;;;;;;21.20;9.88;;;13.00;90.80;;;;;;4937400;28;20058;-73
2021/03/31 01:34:18;;;;;;;21.15;12.25;;;13.00;90.30;;;;;;4937490;28;20030;-73
2021/03/31 01:36:46;;;;;;;26.88;12.18;;;12.70;91.10;;;;;;4937560;28;21362;-73
2021/03/31 01:39:12;;;;;;;21.70;12.57;;;12.50;91.50;;;;;;4941552;28;20099;-72
2021/03/31 01:41:39;;;;;;;26.65;12.57;;;12.40;91.70;;;;;;4938337;28;20453;-73
2021/03/31 01:44:08;;;;;;;23.98;12.13;;;12.40;91.70;;;;;;4938092;28;20125;-73
2021/03/31 01:46:37;;;;;;;21.52;10.77;;;12.30;91.80;;;;;;4939323;28;20678;-73
2021/03/31 01:49:05;;;;;;;20.30;10.48;;;12.50;90.80;;;;;;4941059;28;20031;-73
2021/03/31 01:51:33;;;;;;;20.85;10.98;;;12.50;91.20;;;;;;4938097;28;20043;-73
2021/03/31 01:53:59;;;;;;;19.25;10.50;;;12.50;91.20;;;;;;4939036;28;20041;-73
2021/03/31 01:56:27;;;;;;;22.45;11.75;;;12.40;91.30;;;;;;4936526;28;20118;-73
2021/03/31 01:58:54;;;;;;;19.40;10.10;;;12.10;91.80;;;;;;4941429;28;20027;-73
2021/03/31 02:01:21;;;;;;;20.67;11.68;;;12.00;91.90;;;;;;4939052;28;20145;-73
2021/03/31 02:03:50;;;;;;;22.83;11.45;;;12.10;91.70;;;;;;4938027;28;20089;-73
2021/03/31 02:06:17;;;;;;;19.00;9.27;;;12.20;91.20;;;;;;4936773;28;20035;-73
2021/03/31 02:08:44;;;;;;;23.55;10.60;;;12.50;90.60;;;;;;4947983;28;20059;-73
2021/03/31 02:11:11;;;;;;;25.98;10.73;;;12.40;90.70;;;;;;4941851;28;20046;-73
2021/03/31 02:13:38;;;;;;;20.75;10.05;;;12.30;90.90;;;;;;4948649;28;20516;-73
2021/03/31 02:16:04;;;;;;;21.20;10.13;;;12.10;91.20;;;;;;4947376;28;20033;-73
2021/03/31 02:18:33;;;;;;;24.75;10.75;;;12.10;91.50;;;;;;4937218;28;20138;-73
2021/03/31 02:21:00;;;;;;;19.25;10.10;;;12.20;91.50;;;;;;4940244;28;20060;-73
2021/03/31 02:23:28;;;;;;;20.98;11.07;;;11.90;91.70;;;;;;4936988;28;20585;-73
2021/03/31 02:25:55;;;;;;;21.38;10.98;;;12.10;91.40;;;;;;4963999;28;20026;-73
2021/03/31 02:28:21;;;;;;;18.77;9.90;;;12.00;91.50;;;;;;4963747;28;20175;-73
2021/03/31 02:30:47;;;;;;;20.30;10.35;;;12.10;91.40;;;;;;4951364;28;20055;-73
2021/03/31 02:33:13;;;;;;;21.05;10.70;;;12.20;90.50;;;;;;4945843;28;20027;-73
2021/03/31 02:35:41;;;;;;;19.38;9.00;;;12.10;91.20;;;;;;4937186;28;20035;-73
2021/03/31 02:38:12;;;;;;;18.67;8.43;;;12.20;90.70;;;;;;4936680;28;20548;-73
2021/03/31 02:40:39;;;;;;;18.20;9.40;;;12.20;90.30;;;;;;4937676;28;20532;-73
2021/03/31 02:43:07;;;;;;;17.60;9.77;;;12.10;90.90;;;;;;4948453;28;20030;-73
2021/03/31 02:45:35;;;;;;;19.38;8.95;;;12.00;90.80;;;;;;4940663;28;20043;-73
2021/03/31 02:48:04;;;;;;;20.13;9.48;;;11.90;90.80;;;;;;4940339;28;20126;-73
2021/03/31 02:50:31;;;;;;;16.80;8.43;;;12.10;90.60;;;;;;4939879;28;20034;-73
2021/03/31 02:52:58;;;;;;;13.32;7.20;;;11.90;90.60;;;;;;4943361;28;20553;-73
2021/03/31 02:55:25;;;;;;;20.38;9.73;;;12.30;88.80;;;;;;4962605;28;20031;-73
2021/03/31 02:57:52;;;;;;;18.48;8.93;;;11.80;90.90;;;;;;4966411;28;20519;-73
2021/03/31 03:00:19;;;;;;;23.88;10.18;;;11.80;90.40;;;;;;4951810;28;20502;-73
2021/03/31 03:02:46;;;;;;;16.80;8.57;;;11.70;90.90;;;;;;4943555;28;20045;-73
2021/03/31 03:05:14;;;;;;;21.70;10.30;;;11.80;90.80;;;;;;4932411;28;20035;-73
2021/03/31 03:07:40;;;;;;;17.17;8.38;;;11.60;91.10;;;;;;4931931;28;20099;-73
2021/03/31 03:10:09;;;;;;;21.55;9.80;;;11.70;90.80;;;;;;4933979;28;20050;-73
2021/03/31 03:12:46;;;;;;;17.02;8.52;;;11.70;90.80;;;;;;4932948;28;20040;-73
2021/03/31 03:15:14;;;;;;;13.75;7.78;;;11.70;90.30;;;;;;4937305;28;20041;-73
2021/03/31 03:17:40;;;;;;;16.10;8.20;;;11.80;90.20;;;;;;4933607;28;21538;-73
2021/03/31 03:20:09;;;;;;;17.27;8.88;;;11.70;90.20;;;;;;4933958;28;20085;-73
2021/03/31 03:22:36;;;;;;;16.73;8.77;;;11.80;90.10;;;;;;4934132;28;20035;-73
2021/03/31 03:25:03;;;;;;;14.07;7.43;;;11.60;90.70;;;;;;4938327;28;20076;-73
2021/03/31 03:27:29;;;;;;;14.88;7.82;;;11.60;90.40;;;;;;4934118;28;20030;-73
2021/03/31 03:29:55;;;;;;;17.58;7.65;;;11.60;90.40;;;;;;4934337;28;20407;-73
2021/03/31 03:32:22;;;;;;;17.45;7.43;;;11.50;90.60;;;;;;4932774;28;20122;-73
2021/03/31 03:34:49;;;;;;;15.02;7.50;;;11.80;89.50;;;;;;4936043;28;20038;-73
2021/03/31 03:37:17;;;;;;;13.82;7.07;;;11.90;88.80;;;;;;4933702;28;20038;-73
2021/03/31 03:39:44;;;;;;;16.25;7.70;;;11.80;89.20;;;;;;4935559;28;20093;-73
2021/03/31 03:42:10;;;;;;;15.43;6.95;;;11.70;89.90;;;;;;4932439;28;21014;-74
2021/03/31 03:44:36;;;;;;;20.52;6.72;;;11.60;89.70;;;;;;4935448;28;20609;-73
2021/03/31 03:47:03;;;;;;;14.23;6.80;;;11.70;89.00;;;;;;4935671;28;20449;-73
2021/03/31 03:49:29;;;;;;;14.27;6.68;;;11.80;89.10;;;;;;4932921;28;20026;-73
2021/03/31 03:51:55;;;;;;;12.55;5.97;;;11.80;87.20;;;;;;4934366;28;20047;-72
2021/03/31 03:54:21;;;;;;;11.25;6.03;;;12.10;86.20;;;;;;4933179;28;20034;-73
2021/03/31 03:56:49;;;;;;;14.98;6.18;;;12.10;86.70;;;;;;4936262;28;20023;-73
2021/03/31 03:59:26;;;;;;;13.20;6.88;;;12.00;87.10;;;;;;4945829;28;20033;-73
2021/03/31 04:01:53;;;;;;;12.00;5.68;;;11.80;87.00;;;;;;4936363;28;20517;-73
2021/03/31 04:04:20;;;;;;;17.52;7.47;;;11.80;87.30;;;;;;4935291;28;20799;-73
2021/03/31 04:06:46;;;;;;;15.40;7.80;;;11.60;89.10;;;;;;4933666;28;20045;-73
2021/03/31 04:09:12;;;;;;;16.58;7.72;;;11.30;90.20;;;;;;4934239;28;20126;-73
2021/03/31 04:11:40;;;;;;;15.40;7.30;;;11.20;90.30;;;;;;4935264;28;20951;-73
2021/03/31 04:14:07;;;;;;;15.05;8.10;;;11.00;90.80;;;;;;4935003;28;20118;-73
2021/03/31 04:16:35;;;;;;;16.92;7.68;;;10.90;91.10;;;;;;4936060;28;20488;-73
2021/03/31 04:19:05;;;;;;;14.68;8.13;;;10.80;91.20;;;;;;4934077;28;20182;-73
2021/03/31 04:21:34;;;;;;;14.70;6.00;;;11.10;90.90;;;;;;4932445;28;20149;-73
2021/03/31 04:24:00;;;;;;;12.73;6.57;;;11.20;90.30;;;;;;4936340;28;20039;-73
2021/03/31 04:26:28;;;;;;;20.98;7.97;;;11.30;90.00;;;;;;4935813;28;20438;-73
2021/03/31 04:28:55;;;;;;;16.48;8.30;;;11.00;90.50;;;;;;4942762;28;20046;-73
2021/03/31 04:31:23;;;;;;;11.23;7.32;;;11.10;90.80;;;;;;4951801;28;20051;-73
2021/03/31 04:33:52;;;;;;;16.42;8.00;;;11.20;90.10;;;;;;4962307;28;20039;-73
2021/03/31 04:36:18;;;;;;;14.77;7.57;;;11.10;90.50;;;;;;4940515;28;20496;-73
2021/03/31 04:38:49;;;;;;;14.80;7.00;;;11.40;88.70;;;;;;4932621;28;20031;-73
2021/03/31 04:41:16;;;;;;;12.50;6.40;;;11.50;88.60;;;;;;4931038;28;20521;-73
2021/03/31 04:43:42;;;;;;;17.13;7.47;;;11.50;87.00;;;;;;4933012;28;20141;-73
2021/03/31 04:46:08;;;;;;;12.13;6.53;;;11.30;89.60;;;;;;4934144;28;20024;-73
2021/03/31 04:48:35;;;;;;;15.63;5.57;;;11.30;89.10;;;;;;4932909;28;20489;-73
2021/03/31 04:51:02;;;;;;;14.68;6.63;;;11.50;87.90;;;;;;4932929;28;20122;-73
2021/03/31 04:53:27;;;;;;;15.00;6.28;;;11.50;88.10;;;;;;4932425;28;20070;-73
2021/03/31 04:55:53;;;;;;;14.38;5.50;;;11.30;88.40;;;;;;4933688;28;20812;-73
2021/03/31 04:58:19;;;;;;;15.00;7.35;;;11.50;87.40;;;;;;4943185;28;20031;-73
2021/03/31 05:00:45;;;;;;;10.48;4.95;;;11.00;90.10;;;;;;4933985;28;20036;-73
2021/03/31 05:03:11;;;;;;;17.85;7.03;;;11.30;87.90;;;;;;4931486;28;20042;-73
2021/03/31 05:05:37;;;;;;;15.20;7.85;;;11.20;89.80;;;;;;4930775;28;20031;-73
2021/03/31 05:08:03;;;;;;;17.35;7.53;;;10.90;90.50;;;;;;4934883;28;20218;-73
2021/03/31 05:10:29;;;;;;;18.35;8.02;;;10.60;91.10;;;;;;4931681;28;20039;-72
2021/03/31 05:12:55;;;;;;;16.45;7.43;;;10.50;91.20;;;;;;4932307;28;20161;-73
2021/03/31 05:15:21;;;;;;;13.98;6.90;;;10.40;91.50;;;;;;4930765;28;20453;-73
2021/03/31 05:17:46;;;;;;;13.80;6.35;;;10.50;91.30;;;;;;4936340;28;20033;-73
2021/03/31 05:20:13;;;;;;;17.13;7.65;;;10.90;90.50;;;;;;4931064;28;20386;-73
2021/03/31 05:22:39;;;;;;;14.10;7.40;;;10.60;91.00;;;;;;4932803;28;20033;-73
2021/03/31 05:25:06;;;;;;;16.63;7.30;;;10.70;91.10;;;;;;4941407;28;20030;-73
2021/03/31 05:27:35;;;;;;;13.38;7.93;;;10.60;91.30;;;;;;4932661;28;20373;-73
2021/03/31 05:30:06;;;;;;;12.38;6.38;;;10.70;91.10;;;;;;4933814;28;20047;-73
2021/03/31 05:32:32;;;;;;;15.52;7.97;;;10.90;90.80;;;;;;4938957;28;20061;-72
2021/03/31 05:34:58;;;;;;;16.13;7.35;;;10.90;90.90;;;;;;4934382;28;20165;-73
2021/03/31 05:37:24;;;;;;;14.88;7.47;;;10.90;90.90;;;;;;4930093;28;20031;-73
2021/03/31 05:39:50;;;;;;;15.45;7.45;;;10.80;91.20;;;;;;4932371;28;20035;-73
2021/03/31 05:42:16;;;;;;;11.30;4.82;;;10.90;90.80;;;;;;4933727;28;20031;-74
2021/03/31 05:44:43;;;;;;;11.57;4.32;;;11.20;88.90;;;;;;4933049;28;20043;-73
2021/03/31 05:47:13;;;;;;;19.67;6.35;;;11.50;87.10;;;;;;4932685;28;22066;-73
2021/03/31 05:49:40;;;;;;;13.67;7.03;;;11.30;88.50;;;;;;4935391;28;20032;-74
2021/03/31 05:52:09;;;;;;;18.10;7.75;;;11.00;90.40;;;;;;4932444;28;20118;-74
2021/03/31 05:54:35;;;;;;;14.88;6.78;;;11.00;90.50;;;;;;4935633;28;20015;-74
2021/03/31 05:57:01;;;;;;;14.55;6.88;;;11.20;89.90;;;;;;4932546;28;20104;-73
2021/03/31 05:59:27;;;;;;;14.45;6.60;;;11.10;90.20;;;;;;4935484;28;20414;-73
2021/03/31 06:01:52;;;;;;;17.00;7.38;;;11.10;90.20;;;;;;4932852;28;20357;-73
2021/03/31 06:04:18;;;;;;;15.60;7.55;;;11.20;90.20;;;;;;4932121;28;20035;-74
2021/03/31 06:06:44;;;;;;;16.85;6.03;;;11.00;90.90;;;;;;4934505;28;20366;-74
2021/03/31 06:09:10;;;;;;;14.55;7.25;;;10.70;91.20;;;;;;4935006;28;20130;-73
2021/03/31 06:11:54;;;;;;;15.18;6.55;;;10.80;91.10;;;;;;4933252;28;20051;-74
2021/03/31 06:14:33;;;;;;;10.27;5.20;;;10.80;91.00;;;;;;4933277;28;21266;-74
2021/03/31 06:17:11;;;;;;;16.40;6.07;;;11.10;90.10;;;;;;4952751;28;20076;-74
2021/03/31 06:19:38;;;;;;;13.32;5.20;;;11.00;90.50;;;;;;4949089;28;20038;-73
2021/03/31 06:25:00;;;;;;;15.60;5.63;;;11.50;86.10;;;;;;4945990;28;20818;-73
2021/03/31 06:27:28;;;;;;;14.73;4.28;;;11.70;85.50;;;;;;4934863;28;20026;-73
2021/03/31 06:30:04;;;;;;;10.02;4.93;;;11.80;84.70;;;;;;4935196;28;20035;-74
2021/03/31 06:32:38;;;;;;;12.68;4.70;;;11.90;84.80;;;;;;4941451;28;20042;-73
2021/03/31 06:35:26;;;;;;;11.63;5.47;;;11.90;85.20;;;;;;4950559;28;20027;-72
2021/03/31 06:38:15;;;;;;;12.70;4.90;;;11.90;85.20;;;;;;4938903;28;20031;-72
2021/03/31 06:40:46;;;;;;;14.02;6.07;;;11.80;86.50;;;;;;4935703;28;20158;-72
2021/03/31 06:45:53;;;;;;;8.18;4.05;;;11.90;85.10;;;;;;4937537;28;20114;-72
2021/03/31 06:48:22;;;;;;;9.65;4.57;;;12.00;83.90;;;;;;4934414;28;20032;-72
2021/03/31 06:50:47;;;;;;;10.90;4.45;;;12.00;84.90;;;;;;4933910;28;20047;-72
2021/03/31 06:53:13;;;;;;;9.07;3.90;;;11.90;84.60;;;;;;4934267;28;20035;-72
2021/03/31 06:55:39;;;;;;;11.32;4.28;;;12.00;84.20;;;;;;4942934;28;20038;-72
2021/03/31 06:58:11;;;;;;;10.48;4.50;;;12.00;83.70;;;;;;4935334;28;20035;-72
2021/03/31 07:00:38;;;;;;;9.90;3.97;;;12.00;83.10;;;;;;4936910;28;20027;-72
2021/03/31 07:03:07;;;;;;;9.00;4.15;;;12.00;83.30;;;;;;4934943;28;20490;-73
2021/03/31 07:05:38;;;;;;;8.13;3.75;;;12.30;82.80;;;;;;4936600;28;20045;-73
2021/03/31 07:08:05;;;;;;;8.00;4.10;;;13.10;81.00;;;;;;4934920;28;20067;-74
2021/03/31 07:10:58;;;;;;;9.60;4.25;;;14.80;76.60;;;;;;4946636;28;20047;-73
2021/03/31 07:13:31;;;;;;;9.23;4.50;;;16.10;73.60;;;;;;4934631;28;20067;-73
2021/03/31 07:15:57;;;;;;;13.90;4.68;;;17.30;71.40;;;;;;4941324;28;20086;-73
2021/03/31 07:18:25;;;;;;;9.80;4.43;;;17.90;69.40;;;;;;4943998;28;20118;-72
2021/03/31 07:20:51;;;;;;;9.13;3.35;;;16.60;71.30;;;;;;4936275;28;20173;-73
2021/03/31 07:23:19;;;;;;;9.70;5.00;;;14.80;75.80;;;;;;4946353;28;20528;-73
2021/03/31 07:25:45;;;;;;;14.18;4.25;;;14.00;78.90;;;;;;4934379;28;20035;-73
2021/03/31 07:28:14;;;;;;;9.63;4.75;;;13.50;80.50;;;;;;4935186;28;20041;-73
2021/03/31 07:30:40;;;;;;;8.88;4.32;;;13.00;80.90;;;;;;4933880;28;20047;-72
2021/03/31 07:33:17;;;;;;;10.05;3.97;;;12.80;79.40;;;;;;4934787;28;20125;-73
2021/03/31 07:35:43;;;;;;;9.70;4.03;;;12.80;79.70;;;;;;4937167;28;20031;-73
2021/03/31 07:38:12;;;;;;;15.15;4.53;;;12.80;79.20;;;;;;4962558;28;20033;-73
2021/03/31 07:40:38;;;;;;;10.88;4.03;;;12.80;79.20;;;;;;4960968;28;20027;-72
2021/03/31 07:43:07;;;;;;;16.80;4.47;;;12.90;79.30;;;;;;4947648;28;20336;-73
2021/03/31 07:45:43;;;;;;;12.18;4.32;;;12.90;79.60;;;;;;4958634;28;20966;-73
2021/03/31 07:48:10;;;;;;;11.48;4.55;;;12.90;79.60;;;;;;4950466;28;20750;-73
2021/03/31 07:50:36;;;;;;;25.90;5.43;;;13.00;79.70;;;;;;4934177;28;20122;-73
2021/03/31 07:53:03;;;;;;;16.02;4.30;;;13.10;80.20;;;;;;4946564;28;20564;-73
2021/03/31 07:55:38;;;;;;;12.38;3.97;;;13.10;78.90;;;;;;4944428;28;20038;-72
2021/03/31 07:58:13;;;;;;;11.68;4.28;;;13.10;79.40;;;;;;4935380;28;21897;-73
2021/03/31 08:01:07;;;;;;;9.00;3.83;;;13.10;79.70;;;;;;4946958;28;20082;-73
2021/03/31 08:03:39;;;;;;;13.35;4.50;;;13.10;79.20;;;;;;4939957;29;20074;-72
2021/03/31 08:06:13;;;;;;;11.02;5.00;;;12.90;79.10;;;;;;4947698;28;20102;-72
2021/03/31 08:08:49;;;;;;;16.48;4.50;;;13.00;79.40;;;;;;4946593;28;20047;-72
2021/03/31 08:11:40;;;;;;;10.50;4.47;;;13.10;79.30;;;;;;4953618;28;20437;-72
2021/03/31 08:14:14;;;;;;;9.52;4.30;;;13.20;80.00;;;;;;4954903;28;20069;-72
2021/03/31 08:16:47;;;;;;;15.40;4.70;;;13.20;79.30;;;;;;4934431;28;20480;-73
2021/03/31 08:19:15;;;;;;;16.60;4.72;;;13.30;79.50;;;;;;4936592;28;20054;-73
2021/03/31 08:21:43;;;;;;;9.93;4.13;;;13.30;79.30;;;;;;4934011;28;20031;-72
2021/03/31 08:24:10;;;;;;;12.85;4.35;;;13.40;79.30;;;;;;4934478;28;20027;-73
2021/03/31 08:26:45;;;;;;;12.35;4.28;;;13.50;80.20;;;;;;4937284;28;21797;-73
2021/03/31 08:29:19;;;;;;;;;;;13.40;79.30;;;;;;4946957;28;20035;-72
2021/03/31 08:31:57;;;;;;;13.40;4.43;;;13.40;79.80;;;;;;4933026;28;19918;-73
2021/03/31 08:34:24;;;;;;;23.25;5.88;;;13.50;79.50;;;;;;4935621;28;20045;-73
2021/03/31 08:36:51;;;;;;;10.75;4.88;;;13.60;79.30;;;;;;4933206;28;20331;-72
2021/03/31 08:39:17;;;;;;;13.00;4.60;;;13.60;79.40;;;;;;4933739;28;20586;-72
2021/03/31 08:41:45;;;;;;;13.05;3.97;;;13.70;79.30;;;;;;4933906;28;20070;-72
2021/03/31 08:44:32;;;;;;;13.05;4.55;;;13.70;79.30;;;;;;4934853;28;20551;-72
2021/03/31 08:47:20;;;;;;;15.55;5.57;;;13.70;78.50;;;;;;4935798;28;20033;-72
2021/03/31 08:49:56;;;;;;;9.82;4.70;;;13.80;78.30;;;;;;4938991;28;20038;-73
2021/03/31 08:52:22;;;;;;;9.75;4.90;;;13.90;78.40;;;;;;4966410;28;20039;-72
2021/03/31 08:54:53;;;;;;;15.18;5.15;;;14.00;78.20;;;;;;4944459;28;20029;-73
2021/03/31 08:57:27;;;;;;;27.10;5.70;;;14.10;78.10;;;;;;4934858;28;20046;-73
2021/03/31 08:59:58;;;;;;;22.63;4.18;;;14.10;77.90;;;;;;4938331;28;20029;-72
2021/03/31 09:02:27;;;;;;;11.13;4.15;;;14.40;77.80;;;;;;4949864;28;20030;-73
2021/03/31 09:04:54;;;;;;;9.60;4.28;;;14.40;77.40;;;;;;4932808;28;20035;-73
2021/03/31 09:07:20;;;;;;;18.40;5.05;;;14.50;77.00;;;;;;4931891;28;20027;-73
2021/03/31 09:09:47;;;;;;;8.50;4.53;;;15.70;76.70;;;;;;4932287;28;20240;-73
2021/03/31 09:12:14;;;;;;;12.60;3.95;;;18.20;71.80;;;;;;4932633;28;20042;-73
2021/03/31 09:14:43;;;;;;;10.88;5.00;;;19.60;68.90;;;;;;4936345;28;20027;-73
2021/03/31 09:17:11;;;;;;;102.47;10.30;;;20.90;66.60;;;;;;4935862;28;20509;-73
2021/03/31 09:19:41;;;;;;;12.40;4.35;;;21.20;65.40;;;;;;4938743;28;20058;-73
2021/03/31 09:22:17;;;;;;;10.35;4.00;;;21.20;64.80;;;;;;4932261;28;20118;-73
2021/03/31 09:24:47;;;;;;;9.80;4.07;;;21.50;64.50;;;;;;4934907;28;20042;-73
2021/03/31 09:27:16;;;;;;;11.90;5.10;;;21.10;63.80;;;;;;4937832;28;20031;-73
2021/03/31 09:29:43;;;;;;;16.50;4.82;;;21.50;63.50;;;;;;4936952;28;20418;-73
2021/03/31 09:32:13;;;;;;;19.13;4.57;;;22.90;61.40;;;;;;4932630;28;20033;-73
2021/03/31 09:34:40;;;;;;;18.45;5.43;;;23.10;61.60;;;;;;4935024;28;20553;-73
2021/03/31 09:37:11;;;;;;;10.68;4.90;;;22.10;61.90;;;;;;4933605;28;20027;-73
2021/03/31 09:39:57;;;;;;;11.32;4.63;;;21.60;63.10;;;;;;4945575;29;20034;-73
2021/03/31 09:42:24;;;;;;;12.32;4.45;;;22.10;62.40;;;;;;4944060;28;20023;-73
2021/03/31 09:44:53;;;;;;;8.82;3.70;;;22.10;61.00;;;;;;4934613;28;20023;-73
2021/03/31 09:47:21;;;;;;;13.13;3.80;;;22.70;61.80;;;;;;4936417;28;20035;-73
2021/03/31 09:49:53;;;;;;;22.70;4.60;;;22.90;60.00;;;;;;4932296;28;20146;-73
2021/03/31 09:52:30;;;;;;;39.42;4.93;;;22.60;60.00;;;;;;4934322;28;20097;-73
2021/03/31 09:55:14;;;;;;;13.35;4.13;;;21.60;60.10;;;;;;4960834;28;20065;-73
2021/03/31 09:57:44;;;;;;;9.32;3.90;;;20.80;59.60;;;;;;4939012;28;20027;-73
2021/03/31 10:00:14;;;;;;;13.93;4.45;;;19.80;61.30;;;;;;4940128;28;20137;-73
2021/03/31 10:02:41;;;;;;;8.88;3.60;;;18.80;62.90;;;;;;4938577;28;20037;-73
2021/03/31 10:05:14;;;;;;;11.35;3.38;;;18.00;63.20;;;;;;4939286;28;20031;-73
2021/03/31 10:07:42;;;;;;;16.08;3.58;;;17.60;63.20;;;;;;4948197;29;20058;-73
2021/03/31 10:10:09;;;;;;;9.75;3.50;;;17.40;63.10;;;;;;4939474;28;20163;-73
2021/03/31 10:12:38;;;;;;;13.73;4.13;;;17.40;63.60;;;;;;4935783;28;20098;-73
2021/03/31 10:15:09;;;;;;;9.57;3.05;;;17.60;64.70;;;;;;4939309;28;20116;-73
2021/03/31 10:17:35;;;;;;;7.43;3.75;;;17.70;65.50;;;;;;4937111;28;20099;-73
2021/03/31 10:20:17;;;;;;;8.25;3.58;;;17.50;64.00;;;;;;4936397;28;20046;-73
2021/03/31 10:22:51;;;;;;;11.52;3.88;;;17.60;64.20;;;;;;4967231;28;20548;-73
2021/03/31 10:25:43;;;;;;;14.75;4.13;;;17.80;64.70;;;;;;4938964;28;20363;-73
2021/03/31 10:28:09;;;;;;;6.38;3.17;;;18.20;64.70;;;;;;4937448;28;20177;-73
2021/03/31 10:30:36;;;;;;;12.77;3.15;;;18.50;64.70;;;;;;4955185;28;20512;-73
2021/03/31 10:33:02;;;;;;;9.73;3.22;;;18.80;64.00;;;;;;4959697;28;20030;-73
2021/03/31 10:35:47;;;;;;;11.82;3.95;;;18.80;62.70;;;;;;4936399;28;20039;-73
2021/03/31 10:38:41;;;;;;;9.65;3.50;;;18.50;63.00;;;;;;4936326;28;20360;-73
2021/03/31 10:41:38;;;;;;;10.82;3.88;;;18.30;62.60;;;;;;4934782;28;20354;-73
2021/03/31 10:47:13;;;;;;;12.82;4.28;;;18.50;62.50;;;;;;4941428;28;19913;-73
2021/03/31 10:49:44;;;;;;;13.45;3.50;;;18.60;62.60;;;;;;4959786;28;20090;-73
2021/03/31 10:55:03;;;;;;;18.65;4.47;;;18.40;62.20;;;;;;4931588;28;20130;-73
2021/03/31 10:57:29;;;;;;;12.63;3.85;;;18.50;62.40;;;;;;4938823;28;20034;-73
2021/03/31 10:59:55;;;;;;;13.23;3.72;;;18.80;63.30;;;;;;4963373;28;20033;-73
2021/03/31 11:02:21;;;;;;;14.40;4.40;;;19.00;62.70;;;;;;4962525;28;20092;-73
2021/03/31 11:04:47;;;;;;;14.13;5.07;;;19.20;63.20;;;;;;4964716;28;20035;-73
2021/03/31 11:07:13;;;;;;;10.57;4.03;;;19.20;61.90;;;;;;4968353;28;20027;-73
2021/03/31 11:09:43;;;;;;;12.77;4.45;;;19.30;61.70;;;;;;4962380;28;20736;-73
2021/03/31 11:12:10;;;;;;;9.05;4.30;;;19.90;61.90;;;;;;4937100;28;20058;-73
2021/03/31 11:14:36;;;;;;;9.70;3.80;;;20.10;61.30;;;;;;4954529;28;20034;-73
2021/03/31 11:17:09;;;;;;;8.55;3.67;;;20.10;61.10;;;;;;4936200;28;20027;-73
2021/03/31 11:20:07;;;;;;;12.05;4.10;;;20.20;61.40;;;;;;4946063;28;20023;-73
2021/03/31 11:27:50;;;;;;;9.43;3.65;;;20.20;61.80;;;;;;4963212;28;20000;-73
2021/03/31 11:30:16;;;;;;;9.77;4.00;;;20.10;61.00;;;;;;4966245;28;20089;-73
2021/03/31 11:32:42;;;;;;;11.88;4.60;;;20.10;61.80;;;;;;4959157;28;20505;-73
2021/03/31 11:35:08;;;;;;;10.68;3.17;;;20.50;61.90;;;;;;4948432;28;20059;-73
2021/03/31 11:37:35;;;;;;;11.75;4.10;;;20.60;62.30;;;;;;4961498;28;20073;-73
2021/03/31 11:40:01;;;;;;;20.88;4.68;;;20.70;61.70;;;;;;4966191;28;20079;-73
2021/03/31 11:42:27;;;;;;;12.40;3.72;;;20.50;61.30;;;;;;4939428;28;20102;-72
2021/03/31 11:44:53;;;;;;;10.82;4.45;;;20.50;61.90;;;;;;4934251;28;20058;-73
2021/03/31 11:47:19;;;;;;;16.77;5.90;;;20.50;62.10;;;;;;4933722;28;20024;-73
2021/03/31 11:49:45;;;;;;;9.60;3.90;;;20.70;61.30;;;;;;4937652;28;20031;-73
2021/03/31 11:52:10;;;;;;;8.57;4.55;;;20.80;60.70;;;;;;4934400;28;20075;-73
2021/03/31 11:54:36;;;;;;;13.20;5.18;;;20.80;60.10;;;;;;4946097;28;20039;-73
2021/03/31 11:57:02;;;;;;;14.98;5.78;;;20.70;59.90;;;;;;4947836;29;20518;-73
2021/03/31 11:59:28;;;;;;;12.38;5.75;;;21.10;58.80;;;;;;4939306;28;20035;-73
2021/03/31 12:01:53;;;;;;;18.73;5.32;;;21.20;59.30;;;;;;4935232;28;20130;-72
2021/03/31 12:04:19;;;;;;;11.95;5.10;;;21.20;60.50;;;;;;4933047;28;20031;-73
2021/03/31 12:06:45;;;;;;;9.85;4.80;;;21.40;59.60;;;;;;4933467;28;20037;-73
2021/03/31 12:09:11;;;;;;;18.00;5.72;;;21.30;59.70;;;;;;4937422;28;20070;-73
2021/03/31 12:11:37;;;;;;;11.93;4.65;;;21.60;60.50;;;;;;4933592;28;20038;-73
2021/03/31 12:14:03;;;;;;;15.60;5.60;;;21.70;60.50;;;;;;4931952;28;20561;-73
2021/03/31 12:16:29;;;;;;;11.15;5.28;;;21.50;58.10;;;;;;4933696;28;20034;-73
2021/03/31 12:18:55;;;;;;;11.32;4.55;;;21.50;58.40;;;;;;4934827;28;20057;-73
2021/03/31 12:21:20;;;;;;;11.98;4.63;;;21.50;58.40;;;;;;4954156;28;20405;-73
2021/03/31 12:23:46;;;;;;;13.77;5.55;;;21.80;60.70;;;;;;4955403;28;20110;-73
2021/03/31 12:26:13;;;;;;;11.68;4.78;;;21.70;57.10;;;;;;4934416;28;20122;-72
2021/03/31 12:28:40;;;;;;;13.50;6.50;;;21.70;59.50;;;;;;4934595;28;20022;-73
2021/03/31 12:31:07;;;;;;;16.40;6.32;;;21.80;59.60;;;;;;4943586;28;20422;-72
2021/03/31 12:33:34;;;;;;;12.68;5.57;;;22.20;59.10;;;;;;4932629;28;22057;-72
2021/03/31 12:36:00;;;;;;;12.07;5.35;;;22.30;58.60;;;;;;4932400;28;20627;-72
2021/03/31 12:38:26;;;;;;;14.18;4.93;;;21.80;57.40;;;;;;4931579;28;20114;-73
2021/03/31 12:40:52;;;;;;;13.05;5.00;;;22.10;58.00;;;;;;4934593;28;20046;-72
2021/03/31 12:43:19;;;;;;;11.50;5.28;;;22.10;58.40;;;;;;4937458;28;20505;-72
2021/03/31 12:45:44;;;;;;;16.45;5.90;;;22.00;58.00;;;;;;4961414;28;20022;-72
2021/03/31 12:48:10;;;;;;;20.33;5.47;;;22.30;58.40;;;;;;4965203;28;20477;-72
2021/03/31 12:50:37;;;;;;;15.13;5.20;;;22.60;58.90;;;;;;4964098;28;20039;-72
2021/03/31 12:53:25;;;;;;;14.88;5.60;;;22.80;57.40;;;;;;4965243;28;20082;-72
2021/03/31 12:55:51;;;;;;;12.35;6.15;;;22.60;57.00;;;;;;4961087;28;20023;-72
2021/03/31 12:58:20;;;;;;;16.30;4.70;;;22.30;56.50;;;;;;4933733;28;20027;-72
2021/03/31 13:00:47;;;;;;;26.40;6.20;;;22.30;57.60;;;;;;4933460;28;20178;-72
2021/03/31 13:03:12;;;;;;;12.48;5.53;;;22.90;58.90;;;;;;4934592;28;20057;-72